createdAt,value
2019-04-29T00:00:55.240Z,0.73
2019-04-29T00:03:25.055Z,0.60
2019-04-29T00:05:54.891Z,1.87
2019-04-29T00:08:24.804Z,0.83
2019-04-29T00:10:54.631Z,1.50
2019-04-29T00:13:24.742Z,1.40
2019-04-29T00:16:19.434Z,0.80
2019-04-29T00:19:02.804Z,0.87
2019-04-29T00:21:32.903Z,0.50
2019-04-29T00:24:03.981Z,0.87
2019-04-29T00:26:34.292Z,0.53
2019-04-29T00:29:04.076Z,0.83
2019-04-29T00:31:33.963Z,0.73
2019-04-29T00:34:03.907Z,0.60
2019-04-29T00:36:39.621Z,0.60
2019-04-29T00:39:26.795Z,1.70
2019-04-29T00:42:27.462Z,0.40
2019-04-29T00:44:57.489Z,0.50
2019-04-29T00:47:27.323Z,0.50
2019-04-29T00:49:57.137Z,0.43
2019-04-29T00:52:27.169Z,0.40
2019-04-29T00:55:02.614Z,0.53
2019-04-29T00:57:32.406Z,0.43
2019-04-29T01:00:02.249Z,0.50
2019-04-29T01:02:32.110Z,0.43
2019-04-29T01:05:01.890Z,0.70
2019-04-29T01:07:31.718Z,0.50
2019-04-29T01:10:01.878Z,0.57
2019-04-29T01:12:31.711Z,1.67
2019-04-29T01:15:01.512Z,0.47
2019-04-29T01:17:31.305Z,0.30
2019-04-29T01:20:01.236Z,0.43
2019-04-29T01:22:32.161Z,0.77
2019-04-29T01:25:02.001Z,0.87
2019-04-29T01:27:37.421Z,0.60
2019-04-29T01:30:08.336Z,0.40
2019-04-29T01:32:38.210Z,0.77
2019-04-29T01:35:08.225Z,0.50
2019-04-29T01:37:42.765Z,0.50
2019-04-29T01:40:43.745Z,0.30
2019-04-29T01:43:13.605Z,0.77
2019-04-29T01:45:43.504Z,0.50
2019-04-29T01:48:13.406Z,0.60
2019-04-29T01:50:43.240Z,1.27
2019-04-29T01:53:13.122Z,0.53
2019-04-29T01:55:42.913Z,0.40
2019-04-29T01:58:13.078Z,0.73
2019-04-29T02:00:42.867Z,0.30
2019-04-29T02:03:12.652Z,0.43
2019-04-29T02:05:42.482Z,0.93
2019-04-29T02:08:12.251Z,1.00
2019-04-29T02:10:42.219Z,0.43
2019-04-29T02:13:12.029Z,0.50
2019-04-29T02:15:41.862Z,0.50
2019-04-29T02:18:11.644Z,0.67
2019-04-29T02:20:41.513Z,0.50
2019-04-29T02:23:16.509Z,0.50
2019-04-29T02:25:46.774Z,0.57
2019-04-29T02:28:16.609Z,0.60
2019-04-29T02:30:48.325Z,0.50
2019-04-29T02:33:18.336Z,0.40
2019-04-29T02:35:48.374Z,0.40
2019-04-29T02:38:39.954Z,0.40
2019-04-29T02:41:22.715Z,0.53
2019-04-29T02:43:54.053Z,0.40
2019-04-29T02:46:23.897Z,0.40
2019-04-29T02:48:53.748Z,0.40
2019-04-29T02:51:40.932Z,0.40
2019-04-29T02:54:10.763Z,0.40
2019-04-29T02:56:41.730Z,0.60
2019-04-29T02:59:17.024Z,0.53
2019-04-29T03:02:04.141Z,0.40
2019-04-29T03:04:37.964Z,1.67
2019-04-29T03:07:07.735Z,0.50
2019-04-29T03:09:45.518Z,0.50
2019-04-29T03:12:15.595Z,1.60
2019-04-29T03:14:45.379Z,1.80
2019-04-29T03:17:18.640Z,0.50
2019-04-29T03:20:06.157Z,0.30
2019-04-29T03:22:36.935Z,0.63
2019-04-29T03:25:07.123Z,0.40
2019-04-29T03:27:36.938Z,0.50
2019-04-29T03:30:07.289Z,0.40
2019-04-29T03:32:37.180Z,0.47
2019-04-29T03:35:07.344Z,0.63
2019-04-29T03:37:37.188Z,0.43
2019-04-29T03:40:07.658Z,0.77
2019-04-29T03:42:37.469Z,0.50
2019-04-29T03:45:08.880Z,0.60
2019-04-29T03:47:38.690Z,0.97
2019-04-29T03:50:08.496Z,1.07
2019-04-29T03:52:38.475Z,0.70
2019-04-29T03:55:08.493Z,0.60
2019-04-29T03:57:38.393Z,0.50
2019-04-29T04:00:09.276Z,0.50
2019-04-29T04:02:51.441Z,0.40
2019-04-29T04:05:34.579Z,0.80
2019-04-29T04:08:18.684Z,0.60
2019-04-29T04:10:48.598Z,0.87
2019-04-29T04:13:18.527Z,0.50
2019-04-29T04:15:48.341Z,0.60
2019-04-29T04:18:37.051Z,0.60
2019-04-29T04:21:06.924Z,1.07
2019-04-29T04:23:36.787Z,1.03
2019-04-29T04:26:06.604Z,0.60
2019-04-29T04:28:36.477Z,0.70
2019-04-29T04:31:07.237Z,0.70
2019-04-29T04:33:37.119Z,0.87
2019-04-29T04:36:07.091Z,1.70
2019-04-29T04:38:36.944Z,2.10
2019-04-29T04:41:08.965Z,1.80
2019-04-29T04:43:38.872Z,1.60
2019-04-29T04:46:08.641Z,1.20
2019-04-29T04:48:38.529Z,1.53
2019-04-29T04:51:08.290Z,1.17
2019-04-29T04:53:38.235Z,1.27
2019-04-29T04:56:08.071Z,1.30
2019-04-29T04:58:37.857Z,1.37
2019-04-29T05:01:07.684Z,1.90
2019-04-29T05:03:37.455Z,1.10
2019-04-29T05:06:07.220Z,1.20
2019-04-29T05:08:36.996Z,1.43
2019-04-29T05:11:06.951Z,2.90
2019-04-29T05:13:36.780Z,1.40
2019-04-29T05:16:06.678Z,1.27
2019-04-29T05:18:36.516Z,1.67
2019-04-29T05:21:06.370Z,1.40
2019-04-29T05:23:36.173Z,1.70
2019-04-29T05:26:05.923Z,3.33
2019-04-29T05:28:35.714Z,2.23
2019-04-29T05:31:05.636Z,1.67
2019-04-29T05:33:35.444Z,2.00
2019-04-29T05:36:17.383Z,1.90
2019-04-29T05:39:00.842Z,1.53
2019-04-29T05:41:34.919Z,1.90
2019-04-29T05:44:29.822Z,2.37
2019-04-29T05:47:04.034Z,2.83
2019-04-29T05:50:01.513Z,1.60
2019-04-29T05:52:41.478Z,1.90
2019-04-29T05:55:13.886Z,1.70
2019-04-29T05:57:42.831Z,2.20
2019-04-29T06:00:13.386Z,2.90
2019-04-29T06:02:43.218Z,1.60
2019-04-29T06:05:12.443Z,1.33
2019-04-29T06:07:42.329Z,1.30
2019-04-29T06:10:12.226Z,1.47
2019-04-29T06:12:44.482Z,1.67
2019-04-29T06:15:13.629Z,1.60
2019-04-29T06:17:44.722Z,1.60
2019-04-29T06:20:17.528Z,1.70
2019-04-29T06:22:46.502Z,2.00
2019-04-29T06:25:16.298Z,2.03
2019-04-29T06:27:46.079Z,1.40
2019-04-29T06:30:16.187Z,1.60
2019-04-29T06:32:46.002Z,1.50
2019-04-29T06:35:15.876Z,2.60
2019-04-29T06:37:45.890Z,2.10
2019-04-29T06:40:15.915Z,3.17
2019-04-29T06:42:49.423Z,2.20
2019-04-29T06:45:17.421Z,3.03
2019-04-29T06:47:47.285Z,2.23
2019-04-29T06:50:17.237Z,2.00
2019-04-29T06:52:47.075Z,3.10
2019-04-29T06:55:17.024Z,1.70
2019-04-29T06:57:46.856Z,1.80
2019-04-29T07:00:17.591Z,2.13
2019-04-29T07:02:49.883Z,2.57
2019-04-29T07:05:19.928Z,3.23
2019-04-29T07:07:49.769Z,2.10
2019-04-29T07:10:21.655Z,3.00
2019-04-29T07:12:51.083Z,2.43
2019-04-29T07:15:20.869Z,3.17
2019-04-29T07:17:50.666Z,3.47
2019-04-29T07:20:20.466Z,2.20
2019-04-29T07:22:50.323Z,3.53
2019-04-29T07:25:20.209Z,2.70
2019-04-29T07:27:50.018Z,1.80
2019-04-29T07:30:20.418Z,2.00
2019-04-29T07:32:50.275Z,2.10
2019-04-29T07:35:20.136Z,1.93
2019-04-29T07:37:49.945Z,1.87
2019-04-29T07:40:20.020Z,2.23
2019-04-29T07:42:49.920Z,1.70
2019-04-29T07:45:43.392Z,2.30
2019-04-29T07:48:01.811Z,1.90
2019-04-29T07:50:32.583Z,2.93
2019-04-29T07:53:02.444Z,2.40
2019-04-29T07:55:32.561Z,2.23
2019-04-29T07:58:02.516Z,1.70
2019-04-29T08:00:35.959Z,1.93
2019-04-29T08:03:08.123Z,2.00
2019-04-29T08:05:38.176Z,1.40
2019-04-29T08:08:08.027Z,1.60
2019-04-29T08:10:52.206Z,2.03
2019-04-29T08:13:11.425Z,1.53
2019-04-29T08:15:42.035Z,1.57
2019-04-29T08:18:16.148Z,2.47
2019-04-29T08:20:44.104Z,1.80
2019-04-29T08:23:13.892Z,1.77
2019-04-29T08:25:43.739Z,1.83
2019-04-29T08:28:13.629Z,1.60
2019-04-29T08:30:45.844Z,1.47
2019-04-29T08:33:14.938Z,1.53
2019-04-29T08:35:46.760Z,1.70
2019-04-29T08:38:16.179Z,2.20
2019-04-29T08:40:50.203Z,2.37
2019-04-29T08:43:45.466Z,1.53
2019-04-29T08:46:19.488Z,1.70
2019-04-29T08:48:49.246Z,4.07
2019-04-29T08:51:18.998Z,1.57
2019-04-29T08:53:48.830Z,1.60
2019-04-29T08:56:18.792Z,1.63
2019-04-29T08:58:49.124Z,1.50
2019-04-29T09:01:20.064Z,2.07
2019-04-29T09:03:53.753Z,1.47
2019-04-29T09:06:21.379Z,1.50
2019-04-29T09:08:55.385Z,1.83
2019-04-29T09:11:22.757Z,2.37
2019-04-29T09:13:52.572Z,1.40
2019-04-29T09:16:22.469Z,1.40
2019-04-29T09:18:52.334Z,2.00
2019-04-29T09:21:22.133Z,1.30
2019-04-29T09:23:51.990Z,2.20
2019-04-29T09:26:46.668Z,1.40
2019-04-29T09:29:32.638Z,1.20
2019-04-29T09:32:02.901Z,1.30
2019-04-29T09:34:32.816Z,1.10
2019-04-29T09:37:02.750Z,1.60
2019-04-29T09:39:43.081Z,1.50
2019-04-29T09:42:24.875Z,1.40
2019-04-29T09:45:03.133Z,1.73
2019-04-29T09:47:33.100Z,2.43
2019-04-29T09:50:02.949Z,1.10
2019-04-29T09:52:32.920Z,1.30
2019-04-29T09:55:03.997Z,1.20
2019-04-29T09:57:34.196Z,1.10
2019-04-29T10:00:13.111Z,1.47
2019-04-29T10:02:48.767Z,0.80
2019-04-29T10:05:49.584Z,1.47
2019-04-29T10:08:19.561Z,1.47
2019-04-29T10:10:49.510Z,1.00
2019-04-29T10:13:19.621Z,0.80
2019-04-29T10:16:07.834Z,1.50
2019-04-29T10:18:45.530Z,1.13
2019-04-29T10:21:16.638Z,1.20
2019-04-29T10:23:47.634Z,2.10
2019-04-29T10:26:17.602Z,1.77
2019-04-29T10:29:09.324Z,1.33
2019-04-29T10:31:39.122Z,1.10
2019-04-29T10:34:10.828Z,1.60
2019-04-29T10:36:40.786Z,1.97
2019-04-29T10:39:31.602Z,1.23
2019-04-29T10:42:02.543Z,2.97
2019-04-29T10:44:54.226Z,1.40
2019-04-29T10:47:45.215Z,1.43
2019-04-29T10:50:19.361Z,1.83
2019-04-29T10:52:49.246Z,1.20
2019-04-29T10:55:20.421Z,1.20
2019-04-29T10:57:51.462Z,1.60
2019-04-29T11:00:42.359Z,1.63
2019-04-29T11:03:12.274Z,2.00
2019-04-29T11:06:00.055Z,1.27
2019-04-29T11:08:37.766Z,1.23
2019-04-29T11:11:06.032Z,1.20
2019-04-29T11:13:35.857Z,1.53
2019-04-29T11:16:06.102Z,2.07
2019-04-29T11:18:36.062Z,1.10
2019-04-29T11:21:08.857Z,1.37
2019-04-29T11:24:01.155Z,1.33
2019-04-29T11:26:45.727Z,1.73
2019-04-29T11:29:15.585Z,2.17
2019-04-29T11:31:49.062Z,0.73
2019-04-29T11:34:42.526Z,1.33
2019-04-29T11:37:17.935Z,1.27
2019-04-29T11:39:50.309Z,1.70
2019-04-29T11:42:18.426Z,1.00
2019-04-29T11:44:48.334Z,1.57
2019-04-29T11:47:20.901Z,1.10
2019-04-29T11:49:56.569Z,1.33
2019-04-29T11:52:28.139Z,1.20
2019-04-29T11:54:59.030Z,2.40
2019-04-29T11:57:43.733Z,2.00
2019-04-29T12:00:28.171Z,1.37
2019-04-29T12:03:00.641Z,2.60
2019-04-29T12:05:40.216Z,1.80
2019-04-29T12:08:16.149Z,2.07
2019-04-29T12:10:48.383Z,1.93
2019-04-29T12:13:18.974Z,1.57
2019-04-29T12:16:03.404Z,1.30
2019-04-29T12:18:38.135Z,1.83
2019-04-29T12:21:19.673Z,1.43
2019-04-29T12:23:52.047Z,2.07
2019-04-29T12:26:21.434Z,3.53
2019-04-29T12:28:51.311Z,1.40
2019-04-29T12:31:27.465Z,1.83
2019-04-29T12:34:04.474Z,1.30
2019-04-29T12:36:55.100Z,1.50
2019-04-29T12:39:42.666Z,2.50
2019-04-29T12:42:23.386Z,1.40
2019-04-29T12:44:56.817Z,1.50
2019-04-29T12:47:34.549Z,1.57
2019-04-29T12:50:04.708Z,1.50
2019-04-29T12:52:34.686Z,1.30
2019-04-29T12:55:19.624Z,2.60
2019-04-29T12:57:36.369Z,1.83
2019-04-29T13:00:09.202Z,1.57
2019-04-29T13:02:59.835Z,1.37
2019-04-29T13:06:02.791Z,2.17
2019-04-29T13:08:40.126Z,1.10
2019-04-29T13:11:10.110Z,2.77
2019-04-29T13:13:39.890Z,1.97
2019-04-29T13:16:46.446Z,1.83
2019-04-29T13:19:20.786Z,1.70
2019-04-29T13:21:50.769Z,1.90
2019-04-29T13:24:25.121Z,1.67
2019-04-29T13:26:52.272Z,2.90
2019-04-29T13:29:27.359Z,2.60
2019-04-29T13:31:53.501Z,4.30
2019-04-29T13:34:33.489Z,5.57
2019-04-29T13:37:07.485Z,1.60
2019-04-29T13:39:39.858Z,2.23
2019-04-29T13:42:09.037Z,1.20
2019-04-29T13:44:44.990Z,3.53
2019-04-29T13:47:37.902Z,2.13
2019-04-29T13:50:18.905Z,3.70
2019-04-29T13:52:43.614Z,4.37
2019-04-29T13:55:17.804Z,1.73
2019-04-29T13:57:49.662Z,3.70
2019-04-29T14:00:36.771Z,2.93
2019-04-29T14:03:12.911Z,4.27
2019-04-29T14:05:42.998Z,4.80
2019-04-29T14:08:12.861Z,2.60
2019-04-29T14:10:42.777Z,13.10
2019-04-29T14:13:17.522Z,6.47
2019-04-29T14:15:44.230Z,3.90
2019-04-29T14:18:14.033Z,2.50
2019-04-29T14:20:47.378Z,2.50
2019-04-29T14:23:15.525Z,2.33
2019-04-29T14:25:45.288Z,4.23
2019-04-29T14:28:15.104Z,7.27
2019-04-29T14:30:47.647Z,4.67
2019-04-29T14:33:19.204Z,1.40
2019-04-29T14:36:00.524Z,1.33
2019-04-29T14:38:30.505Z,1.37
2019-04-29T14:41:00.342Z,3.10
2019-04-29T14:43:50.616Z,1.57
2019-04-29T14:46:38.075Z,1.60
2019-04-29T14:49:14.923Z,1.20
2019-04-29T14:51:44.770Z,1.47
2019-04-29T14:54:14.555Z,2.37
2019-04-29T14:56:44.475Z,1.13
2019-04-29T14:59:14.461Z,1.10
2019-04-29T15:01:53.269Z,1.20
2019-04-29T15:04:25.398Z,1.30
2019-04-29T15:06:55.326Z,2.60
2019-04-29T15:09:25.214Z,1.30
2019-04-29T15:12:17.102Z,0.90
2019-04-29T15:15:22.968Z,1.57
2019-04-29T15:17:59.646Z,1.87
2019-04-29T15:21:01.776Z,1.50
2019-04-29T15:23:32.974Z,1.33
2019-04-29T15:26:02.879Z,4.30
2019-04-29T15:28:34.863Z,1.30
2019-04-29T15:31:08.043Z,1.40
2019-04-29T15:33:36.386Z,3.47
2019-04-29T15:36:06.275Z,2.03
2019-04-29T15:38:36.229Z,1.00
2019-04-29T15:41:06.230Z,1.77
2019-04-29T15:43:46.976Z,17.77
2019-04-29T15:46:11.325Z,10.33
2019-04-29T15:48:39.150Z,3.60
2019-04-29T15:51:09.217Z,1.50
2019-04-29T15:53:40.517Z,4.67
2019-04-29T15:56:27.737Z,3.63
2019-04-29T15:58:42.270Z,3.60
2019-04-29T16:01:17.504Z,4.67
2019-04-29T16:03:43.902Z,1.70
2019-04-29T16:06:33.912Z,2.40
2019-04-29T16:09:23.660Z,1.70
2019-04-29T16:12:15.491Z,1.73
2019-04-29T16:14:48.847Z,1.50
2019-04-29T16:17:20.247Z,1.43
2019-04-29T16:19:47.433Z,1.87
2019-04-29T16:22:20.186Z,1.40
2019-04-29T16:24:48.725Z,2.90
2019-04-29T16:27:18.518Z,1.70
2019-04-29T16:29:51.615Z,1.80
2019-04-29T16:32:29.017Z,1.83
2019-04-29T16:34:58.881Z,2.00
2019-04-29T16:37:31.883Z,2.07
2019-04-29T16:40:01.355Z,1.90
2019-04-29T16:42:37.205Z,1.97
2019-04-29T16:45:12.174Z,1.83
2019-04-29T16:47:39.582Z,1.40
2019-04-29T16:50:09.801Z,2.60
2019-04-29T16:52:44.427Z,1.93
2019-04-29T16:55:11.421Z,1.70
2019-04-29T16:57:41.280Z,1.33
2019-04-29T17:00:13.707Z,19.27
2019-04-29T17:02:42.745Z,11.70
2019-04-29T17:05:12.986Z,4.50
2019-04-29T17:07:42.862Z,4.10
2019-04-29T17:10:40.805Z,4.53
2019-04-29T17:13:16.735Z,7.17
2019-04-29T17:15:44.617Z,6.23
2019-04-29T17:18:14.179Z,4.07
2019-04-29T17:20:43.977Z,4.10
2019-04-29T17:23:13.828Z,4.30
2019-04-29T17:25:43.685Z,4.70
2019-04-29T17:28:25.469Z,3.30
2019-04-29T17:31:27.862Z,4.37
2019-04-29T17:34:01.219Z,3.23
2019-04-29T17:36:31.287Z,2.27
2019-04-29T17:39:01.148Z,3.73
2019-04-29T17:41:31.185Z,4.67
2019-04-29T17:44:34.728Z,6.50
2019-04-29T17:47:26.659Z,6.43
2019-04-29T17:50:31.332Z,3.53
2019-04-29T17:53:01.414Z,2.70
2019-04-29T17:55:40.996Z,2.43
2019-04-29T17:58:19.333Z,3.97
2019-04-29T18:01:05.321Z,5.07
2019-04-29T18:03:52.570Z,3.57
2019-04-29T18:06:28.340Z,2.40
2019-04-29T18:09:20.025Z,2.60
2019-04-29T18:11:53.496Z,2.50
2019-04-29T18:14:21.476Z,5.10
2019-04-29T18:16:51.434Z,4.77
2019-04-29T18:19:38.938Z,4.60
2019-04-29T18:22:45.535Z,6.10
2019-04-29T18:25:30.719Z,4.30
2019-04-29T18:27:59.985Z,5.83
2019-04-29T18:30:35.865Z,4.23
2019-04-29T18:32:59.570Z,3.47
2019-04-29T18:35:29.496Z,3.33
2019-04-29T18:37:59.371Z,4.53
2019-04-29T18:40:30.194Z,4.67
2019-04-29T18:43:00.278Z,5.70
2019-04-29T18:45:34.213Z,4.67
2019-04-29T18:48:01.699Z,5.30
2019-04-29T18:50:34.237Z,5.30
2019-04-29T18:53:03.127Z,3.40
2019-04-29T18:55:32.933Z,3.10
2019-04-29T18:58:03.094Z,2.97
2019-04-29T19:00:34.752Z,2.50
2019-04-29T19:03:06.465Z,2.90
2019-04-29T19:05:42.101Z,3.50
2019-04-29T19:08:14.787Z,3.07
2019-04-29T19:10:43.781Z,5.10
2019-04-29T19:13:16.536Z,4.17
2019-04-29T19:15:48.401Z,4.37
2019-04-29T19:18:20.915Z,3.80
2019-04-29T19:20:52.788Z,4.27
2019-04-29T19:23:22.418Z,3.73
2019-04-29T19:25:51.885Z,4.43
2019-04-29T19:28:29.438Z,3.73
2019-04-29T19:30:56.153Z,3.40
2019-04-29T19:33:25.285Z,5.20
2019-04-29T19:35:55.476Z,5.97
2019-04-29T19:38:25.467Z,4.33
2019-04-29T19:40:55.367Z,3.60
2019-04-29T19:43:25.900Z,3.90
2019-04-29T19:45:57.498Z,5.37
2019-04-29T19:48:28.750Z,3.50
2019-04-29T19:51:13.856Z,5.53
2019-04-29T19:53:30.223Z,3.53
2019-04-29T19:56:03.779Z,3.90
2019-04-29T19:58:32.095Z,3.63
2019-04-29T20:01:11.540Z,4.20
2019-04-29T20:03:41.439Z,3.60
2019-04-29T20:06:21.492Z,5.03
2019-04-29T20:08:54.241Z,4.20
2019-04-29T20:11:15.902Z,5.43
2019-04-29T20:14:01.274Z,5.47
2019-04-29T20:19:29.426Z,5.03
2019-04-29T20:22:00.549Z,5.10
2019-04-29T20:24:30.986Z,3.97
2019-04-29T20:27:01.202Z,3.73
2019-04-29T20:29:34.596Z,3.27
2019-04-29T20:32:02.761Z,3.70
2019-04-29T20:34:32.739Z,4.00
2019-04-29T20:37:02.761Z,3.43
2019-04-29T20:39:32.753Z,4.00
2019-04-29T20:42:06.297Z,5.07
2019-04-29T20:44:36.523Z,4.33
2019-04-29T20:47:19.427Z,4.07
2019-04-29T20:49:39.558Z,3.83
2019-04-29T20:52:40.145Z,3.67
2019-04-29T20:55:10.306Z,3.87
2019-04-29T20:57:40.238Z,3.43
2019-04-29T21:00:10.737Z,3.87
2019-04-29T21:02:40.795Z,4.43
2019-04-29T21:05:19.869Z,4.13
2019-04-29T21:07:42.370Z,4.00
2019-04-29T21:10:12.391Z,4.33
2019-04-29T21:12:55.922Z,3.90
2019-04-29T21:15:33.728Z,3.50
2019-04-29T21:18:05.349Z,4.30
2019-04-29T21:20:35.354Z,3.80
2019-04-29T21:23:05.265Z,3.10
2019-04-29T21:25:35.434Z,3.33
2019-04-29T21:28:06.730Z,3.70
2019-04-29T21:30:42.566Z,4.53
2019-04-29T21:33:14.597Z,3.50
2019-04-29T21:35:49.592Z,4.23
2019-04-29T21:38:38.970Z,5.30
2019-04-29T21:41:15.644Z,4.77
2019-04-29T21:43:47.059Z,4.03
2019-04-29T21:46:19.715Z,4.40
2019-04-29T21:48:47.992Z,4.17
2019-04-29T21:51:17.900Z,4.07
2019-04-29T21:53:47.770Z,4.23
2019-04-29T21:56:17.529Z,4.47
2019-04-29T21:58:47.324Z,4.33
2019-04-29T22:01:18.352Z,4.27
2019-04-29T22:03:48.346Z,4.77
2019-04-29T22:06:18.300Z,4.73
2019-04-29T22:08:48.120Z,4.10
2019-04-29T22:11:17.931Z,4.07
2019-04-29T22:13:47.728Z,4.50
2019-04-29T22:16:18.021Z,4.10
2019-04-29T22:18:51.938Z,4.33
2019-04-29T22:21:22.095Z,4.07
2019-04-29T22:23:52.206Z,4.53
2019-04-29T22:26:23.435Z,4.20
2019-04-29T22:29:01.786Z,4.37
2019-04-29T22:31:26.857Z,4.13
2019-04-29T22:33:57.454Z,3.90
2019-04-29T22:36:27.345Z,4.30
2019-04-29T22:38:57.288Z,4.03
2019-04-29T22:41:48.707Z,4.57
2019-04-29T22:44:21.902Z,4.93
2019-04-29T22:46:50.980Z,5.10
2019-04-29T22:49:27.204Z,4.23
2019-04-29T22:51:54.525Z,4.77
2019-04-29T22:54:23.887Z,4.70
2019-04-29T22:56:56.405Z,4.47
2019-04-29T22:59:25.389Z,4.87
2019-04-29T23:01:55.727Z,5.03
2019-04-29T23:04:25.545Z,4.37
2019-04-29T23:06:55.559Z,5.10
2019-04-29T23:09:25.330Z,5.13
2019-04-29T23:11:55.691Z,4.47
2019-04-29T23:14:25.736Z,4.57
2019-04-29T23:16:55.653Z,5.20
2019-04-29T23:19:25.928Z,4.73
2019-04-29T23:22:24.132Z,4.43
2019-04-29T23:24:55.848Z,5.73
2019-04-29T23:27:26.018Z,4.87
2019-04-29T23:29:55.843Z,4.53
2019-04-29T23:32:25.741Z,4.33
2019-04-29T23:34:57.243Z,4.83
2019-04-29T23:37:29.220Z,4.97
2019-04-29T23:39:58.915Z,4.93
2019-04-29T23:42:28.745Z,5.43
2019-04-29T23:44:58.638Z,4.70
2019-04-29T23:47:28.529Z,4.87
2019-04-29T23:49:58.480Z,4.83
2019-04-29T23:52:28.373Z,5.27
2019-04-29T23:54:58.247Z,4.70
2019-04-29T23:57:37.933Z,5.13
